Time;durP1;ratioP1;P1;durP2;ratioP2;P2;SDS_P1;SDS_P2;PMS_P1;PMS_P2;Temp;Humidity;BMP_temperature;BMP_pressure;BME280_temperature;BME280_humidity;BME280_pressure;Samples;Min_cycle;Max_cycle;Signal;HPM_P1;HPM_P2
2021/11/21 00:00:23;;;;;;;26.57;16.82;;;;;;;9.46;84.30;99676.25;1660328;86;25643;-66
2021/11/21 00:02:51;;;;;;;21.12;15.15;;;;;;;9.44;84.36;99687.14;1660469;86;25656;-66
2021/11/21 00:05:19;;;;;;;24.43;16.57;;;;;;;9.43;84.17;99669.34;1660342;86;25912;-66
2021/11/21 00:07:46;;;;;;;23.32;14.98;;;;;;;9.42;84.18;99667.77;1660452;86;25416;-66
2021/11/21 00:10:13;;;;;;;21.75;15.95;;;;;;;9.42;84.17;99666.42;1660428;86;27435;-66
2021/11/21 00:12:41;;;;;;;22.73;15.53;;;;;;;9.41;84.14;99658.08;1660056;86;25722;-66
2021/11/21 00:15:09;;;;;;;20.77;14.83;;;;;;;9.40;84.13;99661.34;1660528;85;25590;-66
2021/11/21 00:17:36;;;;;;;21.70;13.88;;;;;;;9.40;84.04;99653.78;1660092;86;26447;-66
2021/11/21 00:20:05;;;;;;;20.45;13.43;;;;;;;9.39;84.02;99654.91;1660427;86;25557;-66
2021/11/21 00:22:35;;;;;;;21.48;14.75;;;;;;;9.36;83.90;99663.06;1633949;86;27341;-66
2021/11/21 00:25:04;;;;;;;17.60;13.50;;;;;;;9.38;83.86;99653.30;1579593;89;25908;-66
2021/11/21 00:27:31;;;;;;;;;;;;;;;9.37;83.84;99658.48;1581623;89;25648;-66
2021/11/21 00:29:58;;;;;;;23.38;14.98;;;;;;;9.34;83.65;99648.53;1579057;88;25964;-66
2021/11/21 00:32:25;;;;;;;21.87;13.05;;;;;;;9.35;83.69;99654.75;1579068;89;25461;-65
2021/11/21 00:34:51;;;;;;;23.67;13.38;;;;;;;9.34;83.63;99659.33;1579601;89;28008;-65
2021/11/21 00:37:18;;;;;;;18.20;13.70;;;;;;;9.36;83.62;99650.92;1579083;89;25644;-65
2021/11/21 00:39:45;;;;;;;19.27;13.43;;;;;;;9.34;83.51;99648.53;1579352;89;25546;-65
2021/11/21 00:42:15;;;;;;;18.23;13.65;;;;;;;9.35;83.41;99647.44;1579105;90;25913;-65
2021/11/21 00:44:45;;;;;;;20.00;14.38;;;;;;;9.36;83.38;99642.83;1579165;90;25609;-65
2021/11/21 00:47:12;;;;;;;18.70;13.58;;;;;;;9.35;83.21;99641.25;1579257;90;27439;-65
2021/11/21 00:49:40;;;;;;;18.85;13.55;;;;;;;9.35;83.13;99642.03;1579147;89;25694;-65
2021/11/21 00:52:08;;;;;;;18.23;13.18;;;;;;;9.34;83.04;99632.91;1579157;90;25525;-65
2021/11/21 00:54:45;;;;;;;17.65;12.45;;;;;;;9.34;83.04;99631.55;1578847;90;25849;-65
2021/11/21 00:57:07;;;;;;;20.02;12.90;;;;;;;9.33;82.82;99614.58;1631137;86;25524;-65
2021/11/21 00:59:35;;;;;;;17.32;12.35;;;;;;;9.34;82.84;99624.80;1635572;86;27388;-65
2021/11/21 01:02:08;;;;;;;16.00;12.70;;;;;;;9.34;82.72;99624.80;1634948;87;25703;-64
2021/11/21 01:04:31;;;;;;;17.57;12.65;;;;;;;9.32;82.52;99625.13;1630163;88;25466;-64
2021/11/21 01:06:58;;;;;;;19.17;13.53;;;;;;;9.32;82.61;99623.77;1630626;88;26572;-64
2021/11/21 01:09:25;;;;;;;17.90;13.78;;;;;;;9.33;82.62;99619.16;1630680;88;25675;-64
2021/11/21 01:11:53;;;;;;;19.55;13.62;;;;;;;9.33;82.36;99624.55;1608812;88;28127;-64
2021/11/21 01:14:20;;;;;;;19.67;14.78;;;;;;;9.34;82.51;99614.02;1630552;88;25758;-66
2021/11/21 01:16:47;;;;;;;21.07;13.85;;;;;;;9.34;82.47;99625.59;1630628;88;25640;-65
2021/11/21 01:19:14;;;;;;;20.65;15.10;;;;;;;9.35;82.38;99602.91;1630614;88;25649;-65
2021/11/21 01:21:40;;;;;;;19.35;14.10;;;;;;;9.34;82.40;99614.80;1630642;88;25747;-65
2021/11/21 01:24:07;;;;;;;23.70;13.90;;;;;;;9.35;82.20;99612.91;1630632;88;27354;-66
2021/11/21 01:26:34;;;;;;;20.02;13.95;;;;;;;9.35;82.29;99615.05;1654909;86;25555;-66
2021/11/21 01:29:02;;;;;;;20.02;14.78;;;;;;;9.35;82.20;99609.65;1658066;86;25501;-65
2021/11/21 01:31:29;;;;;;;20.65;15.05;;;;;;;9.36;82.26;99598.29;1658144;86;25913;-65
2021/11/21 01:33:58;;;;;;;23.62;16.25;;;;;;;9.33;82.16;99601.08;1658151;86;25418;-65
2021/11/21 01:36:24;;;;;;;20.82;14.70;;;;;;;9.32;82.24;99588.69;1657848;85;28022;-65
2021/11/21 01:38:51;;;;;;;19.23;14.53;;;;;;;9.33;82.27;99586.77;1658126;86;25396;-65
2021/11/21 01:41:19;;;;;;;21.85;15.18;;;;;;;9.33;82.26;99595.69;1658081;86;25459;-65
2021/11/21 01:43:46;;;;;;;20.57;14.87;;;;;;;9.33;82.26;99597.57;1658068;86;26831;-65
2021/11/21 01:46:13;;;;;;;20.95;14.75;;;;;;;9.33;82.31;99584.08;1658101;86;25566;-65
2021/11/21 01:48:42;;;;;;;21.87;15.93;;;;;;;9.33;82.33;99583.54;1658130;86;27305;-65
2021/11/21 01:51:11;;;;;;;22.90;15.93;;;;;;;9.33;82.30;99571.93;1657743;86;25701;-65
2021/11/21 01:53:38;;;;;;;21.93;15.60;;;;;;;9.33;82.33;99572.74;1658221;86;25395;-65
2021/11/21 01:56:06;;;;;;;18.40;14.35;;;;;;;9.32;82.31;99564.96;1658082;86;25993;-65
2021/11/21 01:58:35;;;;;;;21.48;14.93;;;;;;;9.32;82.35;99563.05;1658120;86;25595;-65
2021/11/21 02:01:02;;;;;;;21.45;15.20;;;;;;;9.34;82.29;99562.73;1658066;86;27388;-65
2021/11/21 02:03:30;;;;;;;20.43;14.85;;;;;;;9.31;82.20;99552.03;1658014;86;25618;-65
2021/11/21 02:05:57;;;;;;;20.12;15.03;;;;;;;9.30;82.28;99549.65;1658061;86;25625;-65
2021/11/21 02:08:23;;;;;;;24.67;15.45;;;;;;;9.29;82.25;99553.45;1658034;86;25923;-65
2021/11/21 02:10:57;;;;;;;23.10;15.05;;;;;;;9.29;82.35;99544.79;1658123;86;25638;-66
2021/11/21 02:13:18;;;;;;;20.30;15.05;;;;;;;9.27;82.28;99548.36;1658319;86;28275;-66
2021/11/21 02:15:46;;;;;;;22.17;15.98;;;;;;;9.27;82.32;99548.93;1658042;84;25648;-66
2021/11/21 02:18:13;;;;;;;20.45;14.55;;;;;;;9.24;82.32;99549.00;1658063;86;25378;-65
2021/11/21 02:20:44;;;;;;;21.65;14.23;;;;;;;9.23;82.38;99534.47;1658091;86;26684;-65
2021/11/21 02:23:12;;;;;;;19.30;13.98;;;;;;;9.23;82.37;99528.53;1658082;86;25537;-65
2021/11/21 02:25:39;;;;;;;21.35;14.98;;;;;;;9.23;82.32;99531.77;1658074;86;27899;-65
2021/11/21 02:28:08;;;;;;;21.95;14.70;;;;;;;9.21;82.27;99536.16;1658005;86;25449;-65
2021/11/21 02:30:36;;;;;;;21.10;14.38;;;;;;;9.20;82.28;99523.77;1693281;84;25614;-65
2021/11/21 02:33:08;;;;;;;19.15;13.78;;;;;;;9.19;82.26;99518.13;1704841;84;26005;-65
2021/11/21 02:35:39;;;;;;;22.37;14.28;;;;;;;9.19;82.29;99516.78;1696954;84;25664;-65
2021/11/21 02:38:08;;;;;;;20.37;14.38;;;;;;;9.19;82.25;99520.04;1694363;84;27357;-65
2021/11/21 02:40:35;;;;;;;18.77;14.07;;;;;;;9.19;82.24;99507.90;1695180;84;25624;-65
2021/11/21 02:43:03;;;;;;;22.65;14.75;;;;;;;9.18;82.23;99512.52;1659263;86;25533;-65
2021/11/21 02:45:30;;;;;;;21.87;13.95;;;;;;;9.18;82.25;99505.77;1658320;85;26024;-65
2021/11/21 02:47:57;;;;;;;20.25;13.98;;;;;;;9.19;82.25;99511.95;1659431;85;25744;-65
2021/11/21 02:50:26;;;;;;;20.32;14.23;;;;;;;9.18;82.24;99508.47;1659561;85;27327;-65
2021/11/21 02:52:53;;;;;;;23.00;13.80;;;;;;;9.19;82.13;99511.95;1658973;86;25600;-65
2021/11/21 02:55:25;;;;;;;22.02;14.23;;;;;;;9.16;82.05;99506.64;1659420;86;25647;-65
2021/11/21 02:57:52;;;;;;;21.30;14.05;;;;;;;9.14;82.06;99508.31;1659299;86;26049;-65
2021/11/21 03:00:19;;;;;;;19.50;13.75;;;;;;;9.14;81.95;99496.17;1659439;85;25611;-65
2021/11/21 03:02:49;;;;;;;19.48;14.10;;;;;;;9.13;81.99;99504.02;1656878;86;29651;-65
2021/11/21 03:05:20;;;;;;;19.40;14.58;;;;;;;9.13;81.99;99504.58;1659549;85;25571;-66
2021/11/21 03:07:49;;;;;;;20.85;14.83;;;;;;;9.12;81.97;99480.05;1659294;86;25490;-66
2021/11/21 03:10:19;;;;;;;20.32;14.98;;;;;;;9.12;81.96;99489.48;1658741;86;25932;-66
2021/11/21 03:12:55;;;;;;;20.25;14.10;;;;;;;9.11;82.01;99493.31;1659373;86;25689;-66
2021/11/21 03:15:23;;;;;;;18.02;13.45;;;;;;;9.10;81.88;99491.72;1695136;84;27429;-66
2021/11/21 03:17:51;;;;;;;20.95;14.85;;;;;;;9.07;81.84;99491.00;1691564;84;25621;-66
2021/11/21 03:20:22;;;;;;;21.77;14.75;;;;;;;9.07;81.88;99486.95;1694996;83;25612;-66
2021/11/21 03:22:49;;;;;;;23.87;15.70;;;;;;;9.03;81.85;99482.75;1694956;84;25943;-64
2021/11/21 03:25:16;;;;;;;22.27;15.15;;;;;;;9.04;81.92;99478.95;1674870;84;25595;-64
2021/11/21 03:27:43;;;;;;;21.48;14.38;;;;;;;9.03;81.98;99480.63;1695069;84;27329;-65
2021/11/21 03:30:17;;;;;;;20.15;14.63;;;;;;;9.04;82.02;99478.14;1688894;84;25457;-65
2021/11/21 03:32:45;;;;;;;21.42;15.15;;;;;;;9.04;81.92;99468.70;1663979;85;25472;-64
2021/11/21 03:35:12;;;;;;;22.58;15.10;;;;;;;9.03;81.80;99473.31;1658094;86;25900;-65
2021/11/21 03:37:40;;;;;;;25.45;16.10;;;;;;;9.02;81.82;99467.67;1658067;86;25408;-65
2021/11/21 03:40:12;;;;;;;21.90;14.93;;;;;;;9.01;81.90;99466.63;1658000;85;27333;-65
2021/11/21 03:42:40;;;;;;;21.23;15.15;;;;;;;9.01;81.82;99474.19;1658071;85;25615;-64
2021/11/21 03:45:11;;;;;;;22.70;14.83;;;;;;;8.99;81.92;99469.67;1658073;84;25660;-64
2021/11/21 03:47:38;;;;;;;22.02;14.68;;;;;;;8.97;82.21;99463.78;1601724;89;25935;-64
2021/11/21 03:50:11;;;;;;;23.35;14.53;;;;;;;8.96;82.06;99456.82;1601995;89;25537;-66
2021/11/21 03:52:36;;;;;;;24.77;15.98;;;;;;;8.92;82.01;99458.02;1605799;89;27354;-66
2021/11/21 03:55:04;;;;;;;24.37;14.70;;;;;;;8.90;81.94;99458.86;1606452;88;25689;-66
2021/11/21 03:57:31;;;;;;;25.37;15.85;;;;;;;8.89;82.00;99463.25;1603153;88;25524;-66
2021/11/21 03:59:59;;;;;;;21.52;15.13;;;;;;;8.88;81.95;99457.61;1606093;88;28162;-66
2021/11/21 04:02:26;;;;;;;26.80;15.63;;;;;;;8.86;82.05;99461.19;1606169;88;25495;-66
2021/11/21 04:04:52;;;;;;;28.80;17.45;;;;;;;8.82;82.18;99452.13;1606301;88;29487;-66
2021/11/21 04:07:19;;;;;;;25.90;15.35;;;;;;;8.77;82.29;99453.88;1606045;88;25511;-66
2021/11/21 04:09:45;;;;;;;26.05;16.35;;;;;;;8.75;82.33;99453.95;1606293;88;25560;-66
2021/11/21 04:12:12;;;;;;;27.13;16.27;;;;;;;8.71;82.60;99453.80;1623181;86;25805;-66
2021/11/21 04:14:39;;;;;;;25.48;16.17;;;;;;;8.68;82.70;99450.38;1616320;86;25605;-66
2021/11/21 04:17:05;;;;;;;25.20;16.02;;;;;;;8.65;82.76;99451.03;1660510;86;27320;-66
2021/11/21 04:19:32;;;;;;;24.82;15.88;;;;;;;8.62;83.20;99444.92;1660461;86;25553;-66
2021/11/21 04:21:59;;;;;;;24.12;15.55;;;;;;;8.60;83.06;99439.84;1660614;86;25541;-66
2021/11/21 04:24:25;;;;;;;28.27;17.35;;;;;;;8.59;83.16;99439.59;1660616;86;25961;-66
2021/11/21 04:26:52;;;;;;;26.50;15.98;;;;;;;8.55;83.38;99438.65;1660613;86;25558;-66
2021/11/21 04:29:19;;;;;;;24.23;15.20;;;;;;;8.55;83.28;99450.78;1660571;86;27380;-66
2021/11/21 04:31:48;;;;;;;24.20;15.72;;;;;;;8.54;83.59;99449.74;1656390;84;25612;-66
2021/11/21 04:34:14;;;;;;;28.05;16.23;;;;;;;8.50;83.60;99440.71;1655768;86;25649;-66
2021/11/21 04:36:40;;;;;;;29.23;17.52;;;;;;;8.47;83.84;99446.16;1659759;86;25873;-66
2021/11/21 04:39:07;;;;;;;30.40;17.17;;;;;;;8.43;84.11;99446.56;1662793;86;25398;-64
2021/11/21 04:41:34;;;;;;;26.85;15.88;;;;;;;8.40;84.13;99437.16;1662651;86;27316;-66
2021/11/21 04:44:02;;;;;;;26.42;15.43;;;;;;;8.39;84.31;99442.87;1662604;86;25470;-66
2021/11/21 04:46:30;;;;;;;25.75;15.00;;;;;;;8.35;84.26;99434.63;1662685;86;25463;-65
2021/11/21 04:48:57;;;;;;;26.57;16.07;;;;;;;8.35;84.18;99433.27;1662682;86;25846;-65
2021/11/21 04:51:24;;;;;;;23.15;14.65;;;;;;;8.32;84.11;99439.28;1662703;86;25559;-65
2021/11/21 04:53:51;;;;;;;25.12;14.83;;;;;;;8.31;83.96;99435.02;1662678;86;27325;-66
2021/11/21 04:56:17;;;;;;;23.57;15.10;;;;;;;8.32;83.91;99426.38;1662599;86;25545;-66
2021/11/21 04:58:44;;;;;;;26.68;15.00;;;;;;;8.31;83.73;99426.12;1662675;86;25630;-66
2021/11/21 05:01:11;;;;;;;28.23;14.23;;;;;;;8.32;83.57;99432.55;1662610;86;25960;-65
2021/11/21 05:03:38;;;;;;;24.35;14.87;;;;;;;8.33;83.61;99424.72;1662708;86;25427;-65
2021/11/21 05:06:05;;;;;;;23.38;13.53;;;;;;;8.35;83.44;99424.41;1662670;86;27316;-67
2021/11/21 05:08:31;;;;;;;24.55;14.13;;;;;;;8.38;83.35;99430.52;1662592;86;25771;-65
2021/11/21 05:10:58;;;;;;;23.52;14.23;;;;;;;8.38;83.11;99425.12;1662677;86;25553;-65
2021/11/21 05:13:25;;;;;;;23.45;14.05;;;;;;;8.38;83.07;99431.87;1662631;86;26782;-65
2021/11/21 05:15:52;;;;;;;26.95;14.38;;;;;;;8.39;82.83;99431.55;1662729;85;25459;-65
2021/11/21 05:18:19;;;;;;;24.23;13.48;;;;;;;8.41;82.81;99421.78;1662786;84;28125;-65
2021/11/21 05:20:46;;;;;;;24.07;13.05;;;;;;;8.44;82.72;99423.88;1662592;85;26961;-65
2021/11/21 05:23:12;;;;;;;21.33;13.08;;;;;;;8.44;82.43;99413.10;1662644;85;25613;-65
2021/11/21 05:25:39;;;;;;;21.23;12.82;;;;;;;8.46;82.34;99445.13;1662729;86;26775;-65
2021/11/21 05:28:06;;;;;;;21.00;12.35;;;;;;;8.45;82.07;99399.87;1662763;86;25599;-65
2021/11/21 05:30:33;;;;;;;22.07;12.23;;;;;;;8.45;82.09;99401.22;1662708;84;27395;-65
2021/11/21 05:33:00;;;;;;;23.52;12.78;;;;;;;8.47;82.02;99404.95;1662579;86;25420;-65
2021/11/21 05:35:26;;;;;;;21.12;12.45;;;;;;;8.48;81.86;99405.98;1662688;86;25421;-65
2021/11/21 05:37:54;;;;;;;21.82;12.15;;;;;;;8.49;81.89;99400.81;1662587;86;25916;-65
2021/11/21 05:40:21;;;;;;;22.02;12.90;;;;;;;8.49;81.73;99403.52;1635695;87;25692;-65
2021/11/21 05:42:48;;;;;;;20.65;11.43;;;;;;;8.51;81.72;99405.89;1635631;87;29527;-65
2021/11/21 05:45:16;;;;;;;20.77;12.45;;;;;;;8.49;81.08;99397.34;1635632;87;25687;-65
2021/11/21 05:47:42;;;;;;;20.85;13.28;;;;;;;8.49;81.24;99400.03;1635733;87;25589;-65
2021/11/21 05:50:13;;;;;;;23.27;12.73;;;;;;;8.50;81.52;99399.72;1635635;87;26109;-65
2021/11/21 05:52:42;;;;;;;20.32;11.97;;;;;;;8.49;81.41;99408.13;1632840;87;25718;-65
2021/11/21 05:55:10;;;;;;;22.27;12.47;;;;;;;8.49;81.36;99409.47;1650747;86;27928;-65
2021/11/21 05:57:37;;;;;;;22.32;13.28;;;;;;;8.48;81.50;99406.52;1661858;86;25551;-65
2021/11/21 06:00:08;;;;;;;23.62;13.15;;;;;;;8.49;81.48;99404.86;1636436;86;25609;-65
2021/11/21 06:02:35;;;;;;;21.77;13.18;;;;;;;8.48;81.52;99404.64;1633733;86;26092;-65
2021/11/21 06:05:02;;;;;;;23.35;12.53;;;;;;;8.45;81.69;99405.27;1633878;86;25554;-65
2021/11/21 06:07:29;;;;;;;21.87;13.00;;;;;;;8.44;81.59;99409.06;1635220;86;27317;-65
2021/11/21 06:09:57;;;;;;;23.55;12.53;;;;;;;8.41;81.72;99403.73;1630155;87;25532;-65
2021/11/21 06:12:23;;;;;;;23.00;13.45;;;;;;;8.42;81.71;99400.47;1658197;86;25393;-65
2021/11/21 06:14:50;;;;;;;24.25;13.90;;;;;;;8.40;81.79;99390.57;1662340;86;25924;-65
2021/11/21 06:17:17;;;;;;;22.62;12.75;;;;;;;8.38;81.78;99395.49;1662416;86;25640;-65
2021/11/21 06:19:46;;;;;;;23.35;13.62;;;;;;;8.37;81.76;99388.50;1662638;86;27426;-65
2021/11/21 06:22:13;;;;;;;22.52;12.65;;;;;;;8.35;81.82;99394.20;1662527;85;26925;-66
2021/11/21 06:24:40;;;;;;;23.65;13.48;;;;;;;8.36;82.02;99393.11;1662683;86;25563;-65
2021/11/21 06:27:07;;;;;;;26.70;14.05;;;;;;;8.36;82.03;99389.59;1662560;86;25979;-64
2021/11/21 06:29:35;;;;;;;21.40;12.88;;;;;;;8.33;82.10;99391.04;1662728;86;25625;-65
2021/11/21 06:32:03;;;;;;;24.00;13.13;;;;;;;8.33;82.13;99385.65;1662589;84;27357;-64
2021/11/21 06:34:30;;;;;;;28.70;15.78;;;;;;;8.32;82.19;99394.83;1659235;86;25437;-64
2021/11/21 06:36:58;;;;;;;25.80;15.23;;;;;;;8.32;82.18;99384.05;1662398;86;25671;-64
2021/11/21 06:39:24;;;;;;;23.55;14.15;;;;;;;8.33;82.21;99384.86;1662570;86;26007;-64
2021/11/21 06:41:52;;;;;;;23.45;12.98;;;;;;;8.32;82.37;99387.31;1662649;86;25547;-66
2021/11/21 06:44:19;;;;;;;24.63;15.45;;;;;;;8.33;82.34;99383.52;1662646;86;27903;-64
2021/11/21 06:46:46;;;;;;;26.52;14.45;;;;;;;8.31;82.39;99390.56;1662631;86;25634;-64
2021/11/21 06:49:12;;;;;;;21.52;13.50;;;;;;;8.28;82.36;99389.84;1662618;86;25627;-64
2021/11/21 06:51:42;;;;;;;23.98;14.35;;;;;;;8.27;82.41;99383.42;1662538;86;25887;-64
2021/11/21 06:54:10;;;;;;;23.27;13.95;;;;;;;8.26;82.43;99378.59;1662559;85;25581;-64
2021/11/21 06:56:37;;;;;;;25.77;14.57;;;;;;;8.27;82.49;99382.86;1636219;86;27374;-64
2021/11/21 06:59:04;;;;;;;24.10;13.98;;;;;;;8.29;82.55;99387.94;1635613;87;25491;-64
2021/11/21 07:01:32;;;;;;;23.35;13.72;;;;;;;8.28;82.47;99391.19;1635674;87;25643;-64
2021/11/21 07:03:59;;;;;;;25.52;14.75;;;;;;;8.29;82.48;99389.28;1635663;87;25635;-64
2021/11/21 07:06:32;;;;;;;22.70;14.30;;;;;;;8.30;82.54;99384.14;1635686;87;25602;-64
2021/11/21 07:08:59;;;;;;;24.80;14.23;;;;;;;8.31;82.54;99383.02;1635668;87;28237;-64
2021/11/21 07:11:27;;;;;;;26.17;14.03;;;;;;;8.30;82.42;99373.37;1635595;87;25638;-64
2021/11/21 07:13:54;;;;;;;26.75;14.23;;;;;;;8.31;82.50;99370.89;1635695;87;25556;-64
2021/11/21 07:16:20;;;;;;;27.73;13.85;;;;;;;8.30;82.50;99372.02;1635667;87;25964;-64
2021/11/21 07:18:47;;;;;;;27.02;15.03;;;;;;;8.30;82.55;99371.45;1635714;87;25646;-64
2021/11/21 07:21:15;;;;;;;26.42;15.23;;;;;;;8.29;82.49;99376.63;1649818;86;28030;-64
2021/11/21 07:23:42;;;;;;;24.70;14.47;;;;;;;8.27;82.56;99369.39;1662580;86;25785;-64
2021/11/21 07:26:08;;;;;;;26.68;14.00;;;;;;;8.28;82.54;99371.55;1662668;86;25551;-65
2021/11/21 07:28:35;;;;;;;24.27;14.18;;;;;;;8.27;82.75;99372.64;1677836;84;25567;-65
2021/11/21 07:31:03;;;;;;;26.45;14.45;;;;;;;8.26;82.62;99369.70;1689765;84;25439;-65
2021/11/21 07:33:30;;;;;;;23.70;13.85;;;;;;;8.25;82.66;99377.00;1686696;84;27559;-65
2021/11/21 07:35:59;;;;;;;25.23;14.58;;;;;;;8.26;82.71;99380.48;1663934;83;25638;-65
2021/11/21 07:38:27;;;;;;;24.05;14.20;;;;;;;8.26;82.71;99378.59;1662698;86;25457;-65
2021/11/21 07:40:54;;;;;;;23.52;13.22;;;;;;;8.25;82.67;99370.27;1662914;84;26554;-66
2021/11/21 07:43:22;;;;;;;27.07;14.73;;;;;;;8.26;82.64;99373.73;1662861;84;25566;-66
2021/11/21 07:45:51;;;;;;;26.57;14.70;;;;;;;8.27;82.73;99388.25;1664105;85;27320;-66
2021/11/21 07:48:18;;;;;;;23.32;13.80;;;;;;;8.23;82.70;99377.31;1663389;84;25562;-66
2021/11/21 07:50:45;;;;;;;26.05;14.70;;;;;;;8.25;82.66;99368.91;1662791;85;25474;-66
2021/11/21 07:53:12;;;;;;;23.02;14.68;;;;;;;8.22;82.86;99369.01;1662715;84;26535;-65
2021/11/21 07:55:40;;;;;;;27.22;15.05;;;;;;;8.22;82.87;99372.23;1662773;85;25634;-65
2021/11/21 07:58:07;;;;;;;24.32;14.85;;;;;;;8.22;82.87;99370.36;1663292;84;27410;-65
2021/11/21 08:00:34;;;;;;;27.80;15.28;;;;;;;8.22;82.97;99364.97;1662972;84;25840;-65
2021/11/21 08:03:01;;;;;;;24.25;14.33;;;;;;;8.25;82.93;99360.84;1663053;85;25649;-65
2021/11/21 08:05:29;;;;;;;25.80;15.53;;;;;;;8.27;82.86;99367.26;1664707;84;28073;-65
2021/11/21 08:07:55;;;;;;;24.98;14.50;;;;;;;8.28;82.71;99362.12;1662398;86;25553;-65
2021/11/21 08:10:24;;;;;;;26.45;14.63;;;;;;;8.25;82.70;99363.53;1683465;84;28179;-66
2021/11/21 08:12:51;;;;;;;29.40;15.43;;;;;;;8.27;82.88;99373.98;1685966;84;25730;-65
2021/11/21 08:15:17;;;;;;;27.40;15.43;;;;;;;8.27;82.74;99361.30;1687388;84;25742;-65
2021/11/21 08:17:44;;;;;;;26.85;15.72;;;;;;;8.28;82.64;99363.47;1684850;84;26494;-66
2021/11/21 08:20:12;;;;;;;26.80;16.05;;;;;;;8.28;82.67;99370.98;1658922;85;25785;-66
2021/11/21 08:22:40;;;;;;;30.15;16.73;;;;;;;8.29;82.61;99380.67;1665146;84;27351;-66
2021/11/21 08:25:09;;;;;;;23.65;13.88;;;;;;;8.30;82.54;99374.16;1666167;84;25687;-65
2021/11/21 08:27:36;;;;;;;26.35;15.20;;;;;;;8.33;82.52;99371.39;1663164;85;25793;-65
2021/11/21 08:30:07;;;;;;;26.52;14.68;;;;;;;8.34;82.30;99373.77;1664485;85;25962;-65
2021/11/21 08:32:36;;;;;;;27.85;14.38;;;;;;;8.34;82.18;99364.34;1694397;83;25480;-66
2021/11/21 08:35:05;;;;;;;24.47;14.93;;;;;;;8.34;82.03;99365.69;1693342;83;27895;-66
2021/11/21 08:37:33;;;;;;;28.17;14.38;;;;;;;8.36;82.00;99367.51;1660965;85;33457;-64
2021/11/21 08:40:00;;;;;;;26.77;15.45;;;;;;;8.38;81.96;99361.81;1680229;85;25638;-65
2021/11/21 08:42:28;;;;;;;26.65;15.53;;;;;;;8.40;82.02;99368.45;1680174;85;25935;-64
2021/11/21 08:44:54;;;;;;;28.00;14.30;;;;;;;8.41;81.78;99359.80;1680238;84;25596;-65
2021/11/21 08:47:21;;;;;;;25.77;14.95;;;;;;;8.45;81.78;99358.67;1680180;85;27334;-65
2021/11/21 08:49:47;;;;;;;28.73;14.85;;;;;;;8.47;81.29;99356.45;1660453;85;25458;-65
2021/11/21 08:52:14;;;;;;;26.73;14.93;;;;;;;8.48;81.46;99345.35;1680270;85;25449;-64
2021/11/21 08:54:42;;;;;;;25.85;14.65;;;;;;;8.48;81.12;99348.05;1680349;85;26658;-64
2021/11/21 08:57:10;;;;;;;32.40;15.85;;;;;;;8.48;81.23;99346.70;1680356;85;25650;-65
2021/11/21 08:59:36;;;;;;;27.22;15.88;;;;;;;8.49;81.03;99353.66;1680368;85;27376;-65
2021/11/21 09:02:03;;;;;;;26.85;14.85;;;;;;;8.48;81.12;99352.09;1680076;85;25488;-65
2021/11/21 09:04:29;;;;;;;27.30;15.38;;;;;;;8.48;81.01;99357.48;1680171;85;25658;-64
2021/11/21 09:06:56;;;;;;;26.37;15.30;;;;;;;8.50;81.28;99357.95;1680238;85;25883;-65
2021/11/21 09:09:23;;;;;;;27.20;15.00;;;;;;;8.54;81.05;99346.75;1680209;85;25388;-65
2021/11/21 09:11:50;;;;;;;29.00;15.55;;;;;;;8.56;80.89;99349.95;1680197;85;27972;-64
2021/11/21 09:14:17;;;;;;;28.60;16.42;;;;;;;8.58;80.64;99350.95;1680165;85;25574;-67
2021/11/21 09:16:45;;;;;;;29.10;16.60;;;;;;;8.59;80.62;99357.38;1680316;83;25420;-67
2021/11/21 09:19:12;;;;;;;27.73;16.32;;;;;;;8.58;80.32;99353.11;1680209;85;25938;-68
2021/11/21 09:21:42;;;;;;;24.50;15.15;;;;;;;8.62;80.40;99359.22;1680228;85;25601;-68
2021/11/21 09:24:09;;;;;;;27.27;15.55;;;;;;;8.64;80.63;99352.39;1680276;85;27341;-67
2021/11/21 09:26:35;;;;;;;25.75;14.83;;;;;;;8.67;80.39;99348.27;1680143;85;25579;-66
2021/11/21 09:29:04;;;;;;;29.72;15.88;;;;;;;8.70;80.59;99347.61;1680233;85;25413;-65
2021/11/21 09:31:32;;;;;;;25.68;15.35;;;;;;;8.72;80.14;99346.77;1657074;85;26501;-64
2021/11/21 09:34:00;;;;;;;28.62;15.80;;;;;;;8.74;80.15;99341.27;1662614;86;25483;-65
2021/11/21 09:36:27;;;;;;;25.48;15.00;;;;;;;8.75;79.73;99335.31;1662685;86;27911;-65
2021/11/21 09:38:53;;;;;;;23.80;14.60;;;;;;;8.73;79.66;99342.94;1662594;86;25657;-64
2021/11/21 09:41:20;;;;;;;23.95;14.18;;;;;;;8.78;80.09;99341.42;1662611;86;25633;-64
2021/11/21 09:43:47;;;;;;;23.35;14.43;;;;;;;8.82;79.83;99342.38;1662645;86;25929;-63
2021/11/21 09:46:15;;;;;;;25.48;15.32;;;;;;;8.82;79.23;99341.56;1662811;84;25821;-64
2021/11/21 09:48:42;;;;;;;25.90;15.03;;;;;;;8.83;79.39;99346.64;1666686;84;27364;-64
2021/11/21 09:51:09;;;;;;;22.52;14.70;;;;;;;8.87;79.06;99346.80;1654751;86;25827;-64
2021/11/21 09:53:36;;;;;;;23.80;14.75;;;;;;;8.88;79.39;99341.09;1651154;86;25400;-64
2021/11/21 09:56:04;;;;;;;21.85;13.72;;;;;;;8.90;79.17;99327.28;1643683;86;25896;-65
2021/11/21 09:58:31;;;;;;;27.37;15.45;;;;;;;8.89;78.86;99327.06;1652257;85;25785;-65
2021/11/21 10:00:57;;;;;;;21.73;13.03;;;;;;;8.87;78.56;99327.92;1663617;85;27387;-65
2021/11/21 10:03:24;;;;;;;22.40;12.95;;;;;;;8.84;78.41;99328.58;1668879;85;25643;-65
2021/11/21 10:05:55;;;;;;;22.25;13.70;;;;;;;8.81;78.48;99318.43;1646142;85;25431;-66
2021/11/21 10:08:30;;;;;;;24.20;13.95;;;;;;;8.78;78.67;99319.31;1638589;87;25568;-65
2021/11/21 10:11:08;;;;;;;25.48;14.70;;;;;;;8.76;78.71;99310.73;1638115;87;25623;-65
2021/11/21 10:13:45;;;;;;;23.55;13.50;;;;;;;8.76;78.70;99312.08;1602701;89;27938;-64
2021/11/21 10:16:31;;;;;;;22.70;14.05;;;;;;;8.76;78.82;99311.30;1622728;86;25806;-65
2021/11/21 10:19:05;;;;;;;23.25;13.58;;;;;;;8.79;78.63;99305.27;1629802;85;25725;-65
2021/11/21 10:21:40;;;;;;;20.30;13.60;;;;;;;8.81;78.92;99309.77;1638472;87;28068;-64
2021/11/21 10:24:30;;;;;;;22.67;13.35;;;;;;;8.84;78.77;99318.58;1632823;86;25658;-64
2021/11/21 10:27:18;;;;;;;23.30;12.85;;;;;;;8.86;78.50;99310.95;1638507;85;27925;-64
2021/11/21 10:29:49;;;;;;;22.67;13.60;;;;;;;8.82;77.85;99320.81;1642381;86;25646;-63
2021/11/21 10:32:26;;;;;;;22.52;14.07;;;;;;;8.82;78.41;99319.47;1612950;86;25872;-66
2021/11/21 10:34:56;;;;;;;23.95;14.63;;;;;;;8.80;78.37;99310.88;1675371;84;26006;-65
2021/11/21 10:37:36;;;;;;;23.07;14.70;;;;;;;8.84;78.62;99312.41;1684147;84;25563;-64
2021/11/21 10:40:13;;;;;;;23.77;14.45;;;;;;;8.87;78.75;99312.55;1700260;84;29548;-65
2021/11/21 10:42:43;;;;;;;21.57;14.25;;;;;;;8.94;78.68;99312.06;1690674;84;25470;-64
2021/11/21 10:45:13;;;;;;;25.20;14.45;;;;;;;8.95;77.66;99309.02;1656908;86;25418;-64
2021/11/21 10:47:53;;;;;;;22.62;14.98;;;;;;;8.94;77.94;99304.75;1688766;84;26519;-64
2021/11/21 10:50:36;;;;;;;23.57;14.70;;;;;;;8.92;78.22;99306.17;1673048;84;25692;-65
2021/11/21 10:53:08;;;;;;;23.98;14.43;;;;;;;8.94;77.82;99300.70;1682747;84;27330;-65
2021/11/21 10:55:36;;;;;;;25.90;15.83;;;;;;;8.91;78.11;99301.91;1678584;84;26087;-64
2021/11/21 10:58:18;;;;;;;24.30;14.98;;;;;;;8.91;77.98;99308.09;1694889;84;25711;-65
2021/11/21 11:00:59;;;;;;;27.52;15.53;;;;;;;8.90;77.94;99305.70;1698524;84;26001;-64
2021/11/21 11:03:27;;;;;;;24.52;14.50;;;;;;;8.89;77.76;99300.09;1673368;85;25461;-65
2021/11/21 11:05:53;;;;;;;23.55;14.55;;;;;;;8.87;78.02;99304.99;1669201;84;27290;-65
2021/11/21 11:08:34;;;;;;;25.12;16.12;;;;;;;8.88;78.07;99303.33;1697950;84;25467;-65
2021/11/21 11:11:01;;;;;;;28.83;16.55;;;;;;;8.87;78.23;99300.41;1677407;84;25641;-64
2021/11/21 11:13:30;;;;;;;31.17;17.12;;;;;;;8.88;77.58;99300.63;1678680;83;26477;-64
2021/11/21 11:15:57;;;;;;;30.35;16.77;;;;;;;8.86;77.72;99300.17;1694107;84;25627;-64
2021/11/21 11:18:28;;;;;;;25.45;15.80;;;;;;;8.83;77.64;99290.58;1674542;84;27518;-65
2021/11/21 11:20:57;;;;;;;24.85;15.10;;;;;;;8.80;77.65;99290.66;1696723;84;25764;-65
2021/11/21 11:23:23;;;;;;;29.37;16.27;;;;;;;8.77;77.95;99298.06;1673418;83;25567;-65
2021/11/21 11:25:53;;;;;;;27.22;16.20;;;;;;;8.76;78.08;99295.90;1668425;86;25949;-65
2021/11/21 11:28:33;;;;;;;26.15;15.95;;;;;;;8.78;78.33;99295.05;1638268;86;25411;-65
2021/11/21 11:31:01;;;;;;;;;;;;;;;8.77;77.99;99292.67;1685902;84;27957;-65